createdAt,value
2022-08-11T00:03:44.049Z,4.20
2022-08-11T00:08:50.133Z,3.40
2022-08-11T00:13:53.519Z,4.70
2022-08-11T00:19:00.183Z,3.40
2022-08-11T00:24:03.345Z,3.10
2022-08-11T00:29:10.253Z,3.20
2022-08-11T00:34:13.137Z,3.40
2022-08-11T00:39:17.942Z,3.60
2022-08-11T00:44:42.326Z,3.40
2022-08-11T00:50:10.105Z,3.30
2022-08-11T00:55:42.888Z,3.40
2022-08-11T01:01:23.460Z,3.10
2022-08-11T01:06:49.181Z,3.60
2022-08-11T01:12:18.814Z,3.90
2022-08-11T01:17:26.753Z,3.40
2022-08-11T01:23:18.027Z,3.50
2022-08-11T01:29:04.390Z,4.00
2022-08-11T01:34:48.270Z,3.60
2022-08-11T01:40:22.919Z,3.40
2022-08-11T01:45:42.955Z,3.00
2022-08-11T01:51:22.358Z,3.70
2022-08-11T01:56:36.472Z,3.20
2022-08-11T02:01:57.917Z,3.20
2022-08-11T02:07:38.431Z,3.30
2022-08-11T02:12:52.574Z,3.60
2022-08-11T02:18:48.874Z,3.40
2022-08-11T02:24:04.953Z,3.70
2022-08-11T02:29:21.573Z,3.20
2022-08-11T02:35:00.286Z,2.90
2022-08-11T02:40:21.364Z,3.20
2022-08-11T02:45:54.309Z,3.20
2022-08-11T02:51:21.150Z,3.30
2022-08-11T02:56:49.856Z,3.60
2022-08-11T03:02:00.805Z,3.70
2022-08-11T03:07:29.166Z,3.30
2022-08-11T03:13:15.670Z,3.30
2022-08-11T03:18:36.748Z,2.80
2022-08-11T03:24:21.343Z,3.00
2022-08-11T03:29:33.627Z,2.70
2022-08-11T03:34:38.949Z,3.60
2022-08-11T03:39:58.117Z,2.60
2022-08-11T03:45:12.330Z,4.40
2022-08-11T03:50:38.971Z,3.60
2022-08-11T03:56:05.624Z,3.30
2022-08-11T04:01:38.784Z,3.50
2022-08-11T04:07:02.173Z,2.80
2022-08-11T04:12:36.578Z,2.90
2022-08-11T04:18:16.944Z,3.60
2022-08-11T04:24:35.916Z,5.10
2022-08-11T04:30:02.027Z,3.80
2022-08-11T04:35:32.821Z,3.90
2022-08-11T04:40:43.446Z,3.80
2022-08-11T04:46:00.713Z,3.00
2022-08-11T04:52:00.101Z,3.20
2022-08-11T04:57:33.630Z,2.60
2022-08-11T05:03:27.621Z,2.90
2022-08-11T05:08:47.603Z,3.40
2022-08-11T05:14:11.068Z,2.70
2022-08-11T05:19:39.434Z,2.90
2022-08-11T05:25:07.596Z,3.70
2022-08-11T05:30:30.691Z,3.40
2022-08-11T05:36:02.227Z,3.60
2022-08-11T05:41:25.680Z,3.10
2022-08-11T05:46:47.796Z,3.10
2022-08-11T05:52:12.968Z,3.20
2022-08-11T05:57:38.600Z,3.20
2022-08-11T06:02:55.692Z,2.50
2022-08-11T06:08:05.222Z,2.70
2022-08-11T06:13:08.579Z,2.60
2022-08-11T06:18:13.123Z,2.70
2022-08-11T06:23:20.062Z,2.40
2022-08-11T06:28:31.272Z,2.10
2022-08-11T06:33:43.549Z,2.10
2022-08-11T06:39:21.147Z,2.50
2022-08-11T06:44:29.442Z,2.30
2022-08-11T06:50:02.735Z,1.90
2022-08-11T06:55:55.718Z,2.90
2022-08-11T07:00:41.237Z,2.40
2022-08-11T07:06:20.833Z,2.30
2022-08-11T07:12:32.951Z,1.80
2022-08-11T07:17:50.540Z,2.40
2022-08-11T07:23:17.875Z,2.10
2022-08-11T07:28:44.587Z,2.20
2022-08-11T07:34:07.442Z,2.70
2022-08-11T07:39:20.521Z,2.20
2022-08-11T07:44:27.375Z,2.00
2022-08-11T07:49:54.421Z,2.10
2022-08-11T07:55:03.654Z,1.80
2022-08-11T08:00:30.023Z,1.80
2022-08-11T08:05:51.051Z,1.50
2022-08-11T08:11:13.377Z,1.70
2022-08-11T08:16:34.587Z,1.60
2022-08-11T08:21:38.879Z,1.60
2022-08-11T08:26:58.562Z,1.80
2022-08-11T08:32:02.341Z,1.60
2022-08-11T08:37:44.913Z,1.40
2022-08-11T08:42:33.046Z,1.70
2022-08-11T08:47:43.538Z,1.60
2022-08-11T08:53:10.386Z,1.40
2022-08-11T08:58:21.782Z,1.30
2022-08-11T09:03:41.806Z,1.40
2022-08-11T09:08:46.980Z,1.30
2022-08-11T09:14:05.701Z,1.10
2022-08-11T09:19:10.156Z,1.40
2022-08-11T09:24:30.674Z,1.20
2022-08-11T09:29:39.073Z,1.10
2022-08-11T09:34:49.214Z,1.10
2022-08-11T09:40:15.484Z,1.10
2022-08-11T09:45:17.869Z,1.20
2022-08-11T09:50:20.828Z,1.00
2022-08-11T09:55:25.593Z,1.20
2022-08-11T10:00:30.819Z,1.00
2022-08-11T10:05:52.127Z,0.90
2022-08-11T10:10:56.270Z,1.00
2022-08-11T10:16:15.690Z,1.10
2022-08-11T10:21:38.980Z,1.00
2022-08-11T10:26:55.196Z,1.00
2022-08-11T10:32:19.653Z,1.00
2022-08-11T10:38:09.113Z,1.00
2022-08-11T10:43:02.968Z,0.60
2022-08-11T10:48:15.390Z,0.90
2022-08-11T10:53:40.384Z,0.80
2022-08-11T10:58:49.178Z,2.00
2022-08-11T11:03:58.609Z,0.90
2022-08-11T11:09:05.261Z,1.00
2022-08-11T11:14:27.259Z,0.90
2022-08-11T11:19:29.747Z,0.80
2022-08-11T11:24:41.664Z,0.90
2022-08-11T11:29:49.488Z,0.80
2022-08-11T11:35:14.964Z,0.80
2022-08-11T11:40:21.026Z,1.00
2022-08-11T11:50:52.897Z,0.80
2022-08-11T11:56:39.612Z,0.70
2022-08-11T12:02:12.406Z,1.10
2022-08-11T12:07:56.724Z,0.90
2022-08-11T12:13:38.302Z,1.00
2022-08-11T12:18:50.071Z,1.00
2022-08-11T12:24:17.554Z,0.70
2022-08-11T12:29:40.010Z,0.80
2022-08-11T12:34:46.555Z,0.80
2022-08-11T12:40:42.450Z,0.90
2022-08-11T12:45:41.826Z,1.00
2022-08-11T12:51:23.185Z,0.70
2022-08-11T12:56:56.424Z,0.80
2022-08-11T13:02:20.897Z,1.00
2022-08-11T13:07:23.893Z,0.60
2022-08-11T13:12:47.052Z,0.70
2022-08-11T13:17:51.445Z,0.60
2022-08-11T13:22:56.754Z,1.00
2022-08-11T13:28:02.109Z,0.90
2022-08-11T13:33:11.268Z,0.80
2022-08-11T13:38:20.467Z,0.80
2022-08-11T13:43:30.426Z,0.50
2022-08-11T13:48:46.542Z,0.80
2022-08-11T13:53:52.843Z,1.00
2022-08-11T13:59:04.145Z,0.80
2022-08-11T14:04:30.947Z,0.80
2022-08-11T14:09:41.067Z,0.80
2022-08-11T14:14:49.415Z,0.70
2022-08-11T14:19:59.691Z,0.60
2022-08-11T14:25:02.673Z,0.70
2022-08-11T14:30:31.563Z,1.00
2022-08-11T14:35:45.587Z,0.90
2022-08-11T14:41:12.973Z,1.10
2022-08-11T14:46:47.241Z,0.80
2022-08-11T14:51:54.654Z,1.00
2022-08-11T14:56:59.827Z,1.10
2022-08-11T15:02:22.309Z,0.70
2022-08-11T15:07:29.933Z,0.70
2022-08-11T15:12:37.338Z,0.70
2022-08-11T15:17:43.417Z,0.80
2022-08-11T15:23:07.913Z,1.00
2022-08-11T15:28:29.033Z,1.00
2022-08-11T15:33:54.389Z,0.70
2022-08-11T15:39:19.549Z,0.80
2022-08-11T15:45:06.004Z,0.70
2022-08-11T15:50:16.007Z,0.70
2022-08-11T15:55:19.717Z,0.90
2022-08-11T16:00:43.630Z,0.90
2022-08-11T16:05:53.158Z,1.00
2022-08-11T16:11:09.697Z,0.80
2022-08-11T16:16:16.470Z,0.80
2022-08-11T16:21:33.799Z,1.00
2022-08-11T16:27:10.385Z,0.90
2022-08-11T16:32:24.479Z,0.90
2022-08-11T16:37:57.813Z,1.10
2022-08-11T16:43:25.214Z,0.70
2022-08-11T16:48:38.240Z,0.90
2022-08-11T16:54:04.121Z,0.80
2022-08-11T16:59:17.904Z,0.80
2022-08-11T17:04:43.287Z,1.10
2022-08-11T17:10:39.370Z,0.90
2022-08-11T17:15:50.848Z,1.40
2022-08-11T17:20:56.201Z,0.80
2022-08-11T17:26:03.209Z,1.10
2022-08-11T17:31:27.607Z,0.80
2022-08-11T17:36:29.745Z,0.80
2022-08-11T17:41:50.432Z,1.10
2022-08-11T17:47:12.042Z,0.60
2022-08-11T17:52:35.525Z,1.10
2022-08-11T17:57:57.372Z,0.70
2022-08-11T18:08:39.325Z,1.10
2022-08-11T18:14:03.053Z,1.00
2022-08-11T18:19:27.934Z,1.20
2022-08-11T18:24:56.030Z,1.20
2022-08-11T18:30:19.601Z,0.80
2022-08-11T18:35:42.018Z,1.60
2022-08-11T18:41:03.241Z,1.90
2022-08-11T18:46:26.117Z,1.50
2022-08-11T18:51:46.873Z,1.00
2022-08-11T18:57:11.509Z,2.40
2022-08-11T19:02:48.510Z,2.10
2022-08-11T19:08:14.271Z,1.40
2022-08-11T19:13:43.309Z,1.10
2022-08-11T19:19:05.629Z,1.40
2022-08-11T19:24:27.078Z,1.10
2022-08-11T19:30:07.472Z,1.00
2022-08-11T19:35:30.366Z,1.00
2022-08-11T19:40:51.988Z,1.00
2022-08-11T19:46:16.899Z,1.00
2022-08-11T19:51:38.625Z,1.00
2022-08-11T19:57:00.654Z,1.30
2022-08-11T20:02:21.735Z,0.90
2022-08-11T20:07:43.421Z,1.10
2022-08-11T20:13:04.613Z,1.00
2022-08-11T20:18:25.246Z,1.00
2022-08-11T20:23:49.630Z,1.60
2022-08-11T20:29:12.519Z,1.50
2022-08-11T20:34:42.277Z,2.00
2022-08-11T20:40:08.328Z,2.30
2022-08-11T20:45:33.612Z,1.30
2022-08-11T20:50:57.909Z,1.70
2022-08-11T20:56:19.501Z,1.60
2022-08-11T21:01:41.448Z,1.40
2022-08-11T21:07:05.701Z,1.80
2022-08-11T21:18:00.832Z,1.70
2022-08-11T21:23:31.100Z,1.40
2022-08-11T21:28:57.916Z,1.50
2022-08-11T21:34:19.717Z,1.20
2022-08-11T21:39:40.990Z,1.20
2022-08-11T21:45:02.927Z,1.00
2022-08-11T21:50:25.178Z,1.60
2022-08-11T21:55:49.981Z,1.50
2022-08-11T22:01:12.580Z,1.40
2022-08-11T22:06:36.592Z,1.10
2022-08-11T22:12:33.709Z,1.40
2022-08-11T22:17:38.650Z,1.30
2022-08-11T22:23:01.503Z,1.40
2022-08-11T22:28:24.423Z,1.30
2022-08-11T22:33:51.731Z,1.50
2022-08-11T22:39:28.092Z,1.30
2022-08-11T22:44:52.319Z,1.50
2022-08-11T22:50:20.870Z,1.50
2022-08-11T22:55:46.301Z,1.80
2022-08-11T23:01:09.888Z,1.30
2022-08-11T23:06:34.067Z,1.20
2022-08-11T23:12:07.229Z,1.80
2022-08-11T23:17:33.307Z,1.80
2022-08-11T23:22:56.650Z,1.20
2022-08-11T23:28:20.616Z,1.60
2022-08-11T23:33:45.729Z,2.30
2022-08-11T23:39:06.287Z,1.70
2022-08-11T23:44:27.597Z,1.80
2022-08-11T23:49:48.778Z,1.50
2022-08-11T23:55:11.628Z,1.60
